Time;durP1;ratioP1;P1;durP2;ratioP2;P2;SDS_P1;SDS_P2;PMS_P1;PMS_P2;Temp;Humidity;BMP_temperature;BMP_pressure;BME280_temperature;BME280_humidity;BME280_pressure;Samples;Min_cycle;Max_cycle;Signal;HPM_P1;HPM_P2
2021/08/21 00:02:10;;;;;;;4.90;4.23;;;;;;;23.03;84.68;97695.97;4983695;28;20291;-66
2021/08/21 00:04:37;;;;;;;5.20;4.50;;;;;;;23.13;84.60;97718.47;4988201;28;20241;-67
2021/08/21 00:07:04;;;;;;;4.80;4.30;;;;;;;23.13;84.59;97713.34;4988262;28;20218;-67
2021/08/21 00:09:35;;;;;;;6.13;4.43;;;;;;;23.12;84.47;97714.16;4989170;28;20199;-68
2021/08/21 00:12:03;;;;;;;5.27;4.77;;;;;;;23.11;84.66;97709.00;4987674;28;20772;-67
2021/08/21 00:14:29;;;;;;;5.80;4.33;;;;;;;23.07;84.08;97697.78;4979768;28;20252;-67
2021/08/21 00:16:56;;;;;;;4.73;4.30;;;;;;;23.12;84.59;97711.59;5077739;23;20267;-64
2021/08/21 00:19:22;;;;;;;5.33;4.57;;;;;;;23.14;84.86;97714.19;4952270;28;20231;-65
2021/08/21 00:21:49;;;;;;;5.03;4.47;;;;;;;23.13;84.66;97708.22;4942158;29;20295;-64
2021/08/21 00:24:16;;;;;;;5.23;4.40;;;;;;;23.07;84.63;97705.47;4946086;29;20295;-61
2021/08/21 00:26:42;;;;;;;4.77;4.23;;;;;;;23.13;84.68;97710.78;4936275;29;20221;-65
2021/08/21 00:29:09;;;;;;;4.77;4.20;;;;;;;23.14;84.80;97712.50;4925336;29;20289;-64
2021/08/21 00:31:36;;;;;;;8.60;5.00;;;;;;;23.13;84.68;97708.22;4931344;29;20291;-65
2021/08/21 00:34:03;;;;;;;5.13;4.30;;;;;;;23.13;84.73;97715.91;4921607;29;20296;-62
2021/08/21 00:36:29;;;;;;;6.13;4.40;;;;;;;23.13;84.65;97708.22;4931918;29;20697;-64
2021/08/21 00:38:56;;;;;;;4.87;4.37;;;;;;;23.13;84.78;97707.34;4921213;29;20296;-65
2021/08/21 00:41:22;;;;;;;5.40;4.43;;;;;;;23.13;85.00;97709.91;4931567;29;20630;-63
2021/08/21 00:43:49;;;;;;;6.33;4.67;;;;;;;23.12;84.79;97709.03;4927717;29;20291;-63
2021/08/21 00:46:16;;;;;;;5.67;4.27;;;;;;;23.12;84.71;97708.19;4928093;29;20624;-61
2021/08/21 00:48:43;;;;;;;4.27;3.87;;;;;;;23.11;84.86;97709.88;4927338;29;20209;-64
2021/08/21 00:51:09;;;;;;;4.53;4.13;;;;;;;23.07;84.82;97696.94;4934253;29;20233;-62
2021/08/21 00:53:36;;;;;;;4.93;4.33;;;;;;;23.12;84.83;97701.34;4929888;29;20330;-64
2021/08/21 00:56:03;;;;;;;4.43;4.03;;;;;;;23.13;84.82;97704.78;4929656;29;20263;-62
2021/08/21 00:58:29;;;;;;;4.70;4.20;;;;;;;23.13;84.80;97699.66;4923358;29;20256;-65
2021/08/21 01:00:56;;;;;;;5.20;4.40;;;;;;;23.12;84.85;97695.34;4922317;29;20233;-64
2021/08/21 01:03:23;;;;;;;4.90;4.37;;;;;;;23.13;84.85;97694.53;4931690;29;20209;-65
2021/08/21 01:05:50;;;;;;;6.40;4.50;;;;;;;23.13;84.87;97697.97;4924640;29;20292;-64
2021/08/21 01:08:16;;;;;;;4.80;4.30;;;;;;;23.13;84.77;97697.97;4932636;29;20320;-62
2021/08/21 01:10:43;;;;;;;5.57;4.10;;;;;;;23.14;84.86;97703.94;4912221;29;20300;-65
2021/08/21 01:13:10;;;;;;;4.47;4.07;;;;;;;23.12;84.78;97706.47;4913578;29;20293;-62
2021/08/21 01:15:36;;;;;;;5.33;4.27;;;;;;;23.13;84.82;97705.66;4923649;29;20228;-65
2021/08/21 01:18:04;;;;;;;4.83;4.20;;;;;;;23.13;84.73;97700.53;4925764;29;20324;-64
2021/08/21 01:20:31;;;;;;;6.03;4.43;;;;;;;23.13;84.81;97700.53;4920292;29;20288;-64
2021/08/21 01:23:01;;;;;;;6.40;4.13;;;;;;;23.08;85.01;97696.97;4929932;29;20297;-63
2021/08/21 01:25:28;;;;;;;4.80;4.13;;;;;;;23.07;84.80;97705.47;4916265;29;20205;-65
2021/08/21 01:27:55;;;;;;;4.53;3.80;;;;;;;23.12;84.96;97706.47;4906953;29;20655;-64
2021/08/21 01:30:21;;;;;;;4.10;3.70;;;;;;;23.12;85.07;97703.91;4917330;29;20678;-64
2021/08/21 01:32:48;;;;;;;12.57;4.63;;;;;;;23.13;85.04;97702.22;4925963;29;20292;-63
2021/08/21 01:35:17;;;;;;;4.70;4.20;;;;;;;23.14;84.91;97701.38;4929683;29;20208;-65
2021/08/21 01:37:43;;;;;;;4.80;4.33;;;;;;;23.12;85.02;97703.06;4922386;29;20295;-65
2021/08/21 01:40:11;;;;;;;4.50;4.10;;;;;;;23.13;85.02;97702.22;4930767;29;20233;-64
2021/08/21 01:42:38;;;;;;;4.87;3.90;;;;;;;23.13;85.32;97707.34;4928029;29;20268;-64
2021/08/21 01:45:11;;;;;;;5.10;4.60;;;;;;;23.13;85.04;97702.22;4925227;29;20201;-65
2021/08/21 01:47:38;;;;;;;4.53;3.87;;;;;;;23.13;84.92;97704.78;4926635;29;20670;-65
2021/08/21 01:50:08;;;;;;;4.23;3.83;;;;;;;23.14;84.89;97698.81;4909755;29;20626;-64
2021/08/21 01:52:35;;;;;;;4.10;3.70;;;;;;;23.13;84.99;97694.53;4929041;29;20209;-65
2021/08/21 01:55:02;;;;;;;4.43;4.00;;;;;;;23.14;84.97;97698.81;4931139;29;20240;-64
2021/08/21 01:57:29;;;;;;;4.77;4.23;;;;;;;23.13;84.99;97694.53;4923723;29;20261;-65
2021/08/21 01:59:55;;;;;;;5.60;4.07;;;;;;;23.12;85.28;97696.22;4923093;29;20734;-64
2021/08/21 02:02:22;;;;;;;4.77;3.80;;;;;;;23.08;85.05;97681.59;4930118;29;20209;-63
2021/08/21 02:04:49;;;;;;;5.23;3.90;;;;;;;23.14;85.07;97691.13;4921899;29;20232;-64
2021/08/21 02:07:16;;;;;;;5.07;4.27;;;;;;;23.13;85.03;97691.97;4926837;29;20261;-65
2021/08/21 02:09:42;;;;;;;5.83;3.80;;;;;;;23.13;85.01;97686.84;4925477;29;20256;-64
2021/08/21 02:12:09;;;;;;;4.20;3.80;;;;;;;23.13;85.13;97687.72;4923712;29;20233;-63
2021/08/21 02:14:36;;;;;;;5.27;4.23;;;;;;;23.14;85.02;97686.00;4924608;29;20236;-65
2021/08/21 02:17:03;;;;;;;4.03;3.63;;;;;;;23.13;85.07;97689.41;4931828;29;20312;-63
2021/08/21 02:19:30;;;;;;;4.13;3.73;;;;;;;23.13;85.10;97687.72;4923863;29;20205;-63
2021/08/21 02:21:57;;;;;;;4.33;3.93;;;;;;;23.12;84.94;97675.69;4923860;29;20582;-63
2021/08/21 02:24:25;;;;;;;4.20;3.80;;;;;;;23.13;85.25;97677.44;4924131;29;20241;-65
2021/08/21 02:26:53;;;;;;;4.30;3.90;;;;;;;23.13;85.19;97685.16;4929687;29;20244;-63
2021/08/21 02:29:19;;;;;;;3.80;3.50;;;;;;;23.14;85.11;97686.00;4918894;29;20247;-64
2021/08/21 02:31:46;;;;;;;6.13;4.37;;;;;;;23.14;85.07;97681.75;4923336;29;20287;-65
2021/08/21 02:34:12;;;;;;;3.93;3.60;;;;;;;23.14;85.28;97688.56;4926344;29;20676;-65
2021/08/21 02:36:40;;;;;;;4.60;4.20;;;;;;;23.12;85.15;97683.38;4922413;29;20315;-65
2021/08/21 02:39:07;;;;;;;6.00;3.90;;;;;;;23.14;85.15;97691.13;4922190;29;20234;-65
2021/08/21 02:41:33;;;;;;;4.37;3.97;;;;;;;23.13;85.18;97685.16;4929660;29;20260;-64
2021/08/21 02:44:00;;;;;;;4.57;4.07;;;;;;;23.14;84.89;97688.56;4924249;29;20683;-65
2021/08/21 02:46:26;;;;;;;4.10;3.70;;;;;;;23.14;85.22;97683.44;4923558;29;20253;-63
2021/08/21 02:48:53;;;;;;;4.27;3.87;;;;;;;23.14;85.34;97683.44;4921245;29;20264;-64
2021/08/21 02:51:20;;;;;;;4.20;3.80;;;;;;;23.13;85.19;97682.59;4922665;29;20240;-65
2021/08/21 02:53:46;;;;;;;4.03;3.63;;;;;;;23.13;84.97;97682.59;4913473;29;20280;-64
2021/08/21 02:56:13;;;;;;;4.53;3.63;;;;;;;23.14;85.30;97686.88;4928433;29;20233;-64
2021/08/21 02:58:40;;;;;;;4.10;3.70;;;;;;;23.14;85.15;97684.31;4929429;29;20210;-64
2021/08/21 03:01:06;;;;;;;4.23;3.70;;;;;;;23.14;85.20;97686.00;4921031;29;20244;-62
2021/08/21 03:03:33;;;;;;;4.80;4.20;;;;;;;23.14;85.25;97680.88;4923986;29;20277;-65
2021/08/21 03:05:59;;;;;;;3.97;3.50;;;;;;;23.14;85.10;97688.56;4920782;29;20679;-63
2021/08/21 03:08:26;;;;;;;4.20;3.80;;;;;;;23.13;85.00;97687.72;4922804;29;20723;-64
2021/08/21 03:10:52;;;;;;;3.63;3.33;;;;;;;23.14;85.16;97691.13;4930186;29;20969;-64
2021/08/21 03:13:19;;;;;;;4.10;3.63;;;;;;;23.14;85.13;97697.13;4930694;29;20233;-64
2021/08/21 03:15:46;;;;;;;4.00;3.60;;;;;;;23.13;85.08;97692.84;4930190;29;20205;-65
2021/08/21 03:18:12;;;;;;;4.20;3.80;;;;;;;23.13;85.33;97687.72;4931032;29;20280;-63
2021/08/21 03:20:39;;;;;;;3.80;3.43;;;;;;;23.14;85.24;97686.00;4926392;29;20865;-62
2021/08/21 03:23:05;;;;;;;4.00;3.60;;;;;;;23.14;85.19;97691.13;4920467;29;20237;-64
2021/08/21 03:25:32;;;;;;;3.80;3.30;;;;;;;23.13;85.17;97687.72;4931254;29;20297;-65
2021/08/21 03:27:59;;;;;;;5.77;3.67;;;;;;;23.13;85.22;97690.28;4922558;29;20213;-64
2021/08/21 03:30:26;;;;;;;4.30;3.90;;;;;;;23.14;85.28;97686.00;4924752;29;20213;-65
2021/08/21 03:32:52;;;;;;;4.13;3.77;;;;;;;23.13;85.27;97681.69;4910230;29;20236;-65
2021/08/21 03:35:19;;;;;;;3.70;3.40;;;;;;;23.13;85.28;97685.16;4926216;29;20252;-64
2021/08/21 03:37:45;;;;;;;3.93;3.63;;;;;;;23.15;85.21;97687.75;4925163;29;20670;-65
2021/08/21 03:40:12;;;;;;;3.67;3.37;;;;;;;23.14;85.36;97691.13;4919325;29;20245;-64
2021/08/21 03:42:38;;;;;;;3.77;3.47;;;;;;;23.13;85.32;97690.28;4926081;29;20232;-62
2021/08/21 03:45:06;;;;;;;4.17;3.73;;;;;;;23.14;85.37;97697.13;4920822;29;20235;-65
2021/08/21 03:47:32;;;;;;;6.00;3.70;;;;;;;23.14;85.35;97691.13;4924612;29;20253;-65
2021/08/21 03:49:59;;;;;;;4.10;3.80;;;;;;;23.14;85.21;97694.56;4930235;29;20289;-64
2021/08/21 03:52:25;;;;;;;4.00;3.60;;;;;;;23.14;85.22;97692.00;4923599;29;20288;-63
2021/08/21 03:54:52;;;;;;;3.70;3.40;;;;;;;23.15;85.47;97693.72;4929003;29;20283;-64
2021/08/21 03:57:18;;;;;;;3.67;3.37;;;;;;;23.15;86.00;97692.88;4918273;29;20257;-65
2021/08/21 03:59:45;;;;;;;4.20;3.80;;;;;;;23.15;85.38;97692.88;4924686;29;20293;-65
2021/08/21 04:02:11;;;;;;;4.77;3.70;;;;;;;23.16;85.21;97692.91;4925426;29;20261;-64
2021/08/21 04:04:38;;;;;;;3.40;3.10;;;;;;;23.17;85.51;97694.63;4929936;29;20205;-64
2021/08/21 04:07:05;;;;;;;3.90;3.50;;;;;;;23.18;85.42;97692.94;4922612;29;20261;-65
2021/08/21 04:09:31;;;;;;;3.87;3.47;;;;;;;23.19;84.99;97699.81;4917400;29;20237;-64
2021/08/21 04:11:58;;;;;;;3.90;3.60;;;;;;;23.18;85.13;97693.78;4929038;29;20201;-65
2021/08/21 04:14:24;;;;;;;3.90;3.50;;;;;;;23.19;85.12;97699.81;4922967;29;20209;-63
2021/08/21 04:16:51;;;;;;;3.63;3.33;;;;;;;23.18;85.43;97687.81;4929106;29;20272;-65
2021/08/21 04:19:17;;;;;;;3.53;3.23;;;;;;;23.17;85.08;97697.19;4920386;29;20289;-64
2021/08/21 04:21:44;;;;;;;3.77;3.30;;;;;;;23.16;85.16;97697.16;4928978;29;20251;-65
2021/08/21 04:24:11;;;;;;;3.53;3.23;;;;;;;23.15;84.72;97701.41;4928109;29;20289;-63
2021/08/21 04:26:37;;;;;;;4.00;3.63;;;;;;;23.15;84.79;97706.53;4917012;29;20217;-65
2021/08/21 04:29:04;;;;;;;3.53;3.23;;;;;;;23.14;85.19;97704.81;4920512;29;20288;-64
2021/08/21 04:31:30;;;;;;;4.27;3.87;;;;;;;23.14;85.19;97711.63;4919245;29;20232;-64
2021/08/21 04:33:57;;;;;;;3.73;3.43;;;;;;;23.14;85.12;97717.63;4919892;29;20581;-62
2021/08/21 04:36:24;;;;;;;4.90;3.80;;;;;;;23.15;85.36;97708.25;4922198;29;20229;-65
2021/08/21 04:38:50;;;;;;;3.60;3.30;;;;;;;23.14;85.31;97707.38;4919583;29;20263;-65
2021/08/21 04:41:17;;;;;;;3.93;3.60;;;;;;;23.14;85.23;97715.06;4920331;29;20249;-64
2021/08/21 04:43:44;;;;;;;3.30;3.00;;;;;;;23.14;85.27;97711.63;4918264;29;20285;-63
2021/08/21 04:46:11;;;;;;;3.60;3.30;;;;;;;23.15;85.31;97718.50;4919757;29;20225;-65
2021/08/21 04:48:37;;;;;;;4.40;3.70;;;;;;;23.14;85.33;97717.63;4922522;29;20254;-64
2021/08/21 04:51:04;;;;;;;4.00;3.60;;;;;;;23.14;85.31;97716.75;4924156;29;20232;-65
2021/08/21 04:53:31;;;;;;;3.37;3.07;;;;;;;23.14;85.29;97719.31;4920270;29;20286;-63
2021/08/21 04:55:57;;;;;;;3.43;3.13;;;;;;;23.14;85.41;97729.56;4922646;29;20294;-65
2021/08/21 04:58:24;;;;;;;3.50;3.20;;;;;;;23.14;85.43;97721.88;4923297;29;20679;-64
2021/08/21 05:00:51;;;;;;;3.50;3.20;;;;;;;23.13;85.63;97730.41;4924264;29;20625;-64
2021/08/21 05:03:17;;;;;;;3.53;3.23;;;;;;;23.13;85.49;97728.72;4924528;29;20241;-64
2021/08/21 05:05:44;;;;;;;3.77;3.13;;;;;;;23.12;85.41;97721.84;4923161;29;20233;-64
2021/08/21 05:08:10;;;;;;;3.60;3.27;;;;;;;23.13;85.39;97726.16;4928921;29;20251;-65
2021/08/21 05:10:37;;;;;;;3.83;3.53;;;;;;;23.12;85.15;97729.53;4930760;29;20612;-65
2021/08/21 05:13:04;;;;;;;3.50;3.20;;;;;;;23.13;85.54;97730.41;4921745;29;20305;-63
2021/08/21 05:15:33;;;;;;;3.47;3.17;;;;;;;23.13;85.26;97735.53;4927649;29;20292;-64
2021/08/21 05:18:02;;;;;;;3.90;3.30;;;;;;;23.12;85.53;97733.81;4925740;29;20279;-65
2021/08/21 05:20:51;;;;;;;4.33;3.90;;;;;;;23.13;84.80;97732.97;4919701;29;20287;-65
2021/08/21 05:23:15;;;;;;;4.77;4.20;;;;;;;23.11;82.87;97735.50;4925973;29;20297;-63
2021/08/21 05:25:45;;;;;;;5.20;4.70;;;;;;;23.11;82.22;97739.75;4927559;29;20237;-63
2021/08/21 05:28:13;;;;;;;4.93;4.47;;;;;;;23.10;82.01;97738.91;4909248;29;20269;-65
2021/08/21 05:30:39;;;;;;;5.93;4.70;;;;;;;23.09;81.67;97739.72;4919442;29;20209;-64
2021/08/21 05:33:11;;;;;;;5.27;4.77;;;;;;;23.08;81.41;97740.56;4929026;29;20666;-65
2021/08/21 05:35:37;;;;;;;7.80;4.67;;;;;;;23.09;81.46;97736.28;4930764;29;20283;-64
2021/08/21 05:38:04;;;;;;;8.20;5.40;;;;;;;23.07;81.23;97738.78;4926028;29;20261;-65
2021/08/21 05:40:31;;;;;;;9.30;5.20;;;;;;;23.07;81.25;97741.34;4928475;29;20215;-63
2021/08/21 05:42:58;;;;;;;6.63;5.27;;;;;;;23.06;81.28;97739.63;4924854;29;20242;-65
2021/08/21 05:45:25;;;;;;;6.07;5.47;;;;;;;21.72;80.97;97512.16;4924484;29;20683;-65
2021/08/21 05:47:52;;;;;;;7.30;6.00;;;;;;;23.06;81.38;97739.63;4930203;29;20271;-65
2021/08/21 05:50:21;;;;;;;8.33;5.87;;;;;;;23.05;81.31;97739.59;4923255;29;20579;-65
2021/08/21 05:52:48;;;;;;;8.63;5.90;;;;;;;23.05;81.40;97742.16;4931431;29;20645;-63
2021/08/21 05:55:15;;;;;;;8.37;6.53;;;;;;;23.04;81.42;97740.44;4926187;29;20256;-65
2021/08/21 05:57:42;;;;;;;9.07;6.17;;;;;;;23.03;81.50;97738.66;4910343;29;20263;-65
2021/08/21 06:00:09;;;;;;;7.33;6.17;;;;;;;23.04;81.40;97743.84;4924458;29;20287;-64
2021/08/21 06:02:35;;;;;;;8.73;6.63;;;;;;;23.04;81.86;97750.69;4913807;29;20924;-62
2021/08/21 06:05:02;;;;;;;13.03;7.23;;;;;;;23.03;81.74;97749.81;4921370;29;20209;-65
2021/08/21 06:07:29;;;;;;;7.10;6.40;;;;;;;23.02;81.94;97753.22;4919409;29;20222;-65
2021/08/21 06:09:56;;;;;;;7.43;6.60;;;;;;;23.02;82.18;97755.75;4928473;29;20259;-65
2021/08/21 06:12:23;;;;;;;7.93;7.10;;;;;;;23.02;82.05;97758.31;4919772;29;20649;-66
2021/08/21 06:14:49;;;;;;;10.50;6.93;;;;;;;23.00;81.97;97754.84;4922196;29;20695;-65
2021/08/21 06:17:16;;;;;;;11.30;7.27;;;;;;;23.00;81.77;97757.41;4923370;29;20271;-64
2021/08/21 06:19:42;;;;;;;13.53;6.77;;;;;;;23.01;82.17;97755.72;4905328;29;20248;-65
2021/08/21 06:22:09;;;;;;;9.60;6.40;;;;;;;22.91;82.30;97749.47;5060210;23;21074;-67
2021/08/21 06:24:36;;;;;;;7.00;6.30;;;;;;;23.00;82.81;97759.97;5008093;28;20596;-67
2021/08/21 06:27:02;;;;;;;7.40;6.70;;;;;;;21.65;82.58;97523.06;5007538;28;20207;-67
2021/08/21 06:29:34;;;;;;;13.53;6.67;;;;;;;23.00;82.38;97759.09;5006065;28;20688;-67
2021/08/21 06:32:05;;;;;;;14.63;6.47;;;;;;;22.99;82.96;97754.81;5005103;28;20250;-66
2021/08/21 06:34:33;;;;;;;7.43;6.40;;;;;;;22.75;83.17;97721.69;5008481;28;20199;-67
2021/08/21 06:37:00;;;;;;;9.77;6.57;;;;;;;22.92;83.34;97751.19;5006143;28;20280;-66
2021/08/21 06:39:27;;;;;;;11.67;6.00;;;;;;;22.92;83.79;97755.47;5007787;28;20253;-67
2021/08/21 06:41:53;;;;;;;8.07;6.30;;;;;;;22.87;83.62;97750.22;5005273;28;20230;-67
2021/08/21 06:44:20;;;;;;;7.37;6.17;;;;;;;23.00;83.61;97767.66;4988505;28;20248;-67
2021/08/21 06:46:47;;;;;;;8.23;6.23;;;;;;;23.01;83.65;97769.38;5006101;28;20703;-68
2021/08/21 06:49:14;;;;;;;8.90;6.33;;;;;;;23.01;83.62;97765.97;5002824;28;20225;-67
2021/08/21 06:51:40;;;;;;;7.17;5.97;;;;;;;23.02;83.86;97763.47;5006145;28;20230;-67
2021/08/21 06:54:07;;;;;;;8.77;6.33;;;;;;;23.03;84.04;97770.31;5002613;28;20199;-68
2021/08/21 06:56:34;;;;;;;6.80;6.03;;;;;;;23.03;84.05;97769.44;5007691;28;20237;-68
2021/08/21 06:59:00;;;;;;;7.47;5.57;;;;;;;22.95;83.98;97751.28;5003235;28;20245;-66
2021/08/21 07:01:29;;;;;;;7.13;5.90;;;;;;;23.01;84.23;97756.56;5007623;28;20241;-67
2021/08/21 07:03:56;;;;;;;6.60;5.90;;;;;;;22.89;84.05;97737.44;5009616;28;20232;-67
2021/08/21 07:06:22;;;;;;;6.00;5.47;;;;;;;23.00;84.05;97759.97;5009420;28;20260;-67
2021/08/21 07:08:49;;;;;;;5.90;5.30;;;;;;;22.89;84.42;97734.88;5008643;28;20500;-67
2021/08/21 07:11:15;;;;;;;7.67;5.90;;;;;;;22.92;84.24;97740.94;5009135;28;20625;-67
2021/08/21 07:13:44;;;;;;;6.80;5.23;;;;;;;23.00;84.58;97759.09;5009633;28;20226;-67
2021/08/21 07:16:11;;;;;;;7.07;5.37;;;;;;;23.00;84.75;97761.66;5006843;28;20226;-67
2021/08/21 07:18:38;;;;;;;11.07;5.77;;;;;;;23.01;84.79;97755.72;5006846;28;20218;-67
2021/08/21 07:21:07;;;;;;;6.03;5.43;;;;;;;22.94;84.79;97746.09;5005581;28;20234;-66
2021/08/21 07:23:34;;;;;;;7.27;5.90;;;;;;;22.72;84.86;97710.50;4985802;28;20258;-67
2021/08/21 07:26:01;;;;;;;7.80;5.30;;;;;;;23.03;84.62;97765.19;5005559;28;20582;-68
2021/08/21 07:28:27;;;;;;;6.77;5.20;;;;;;;23.05;85.00;97770.34;5007715;28;20203;-66
2021/08/21 07:30:54;;;;;;;15.27;5.80;;;;;;;23.05;84.95;97763.53;5003527;28;20205;-67
2021/08/21 07:33:20;;;;;;;7.17;5.30;;;;;;;23.04;85.29;97766.06;5007495;28;20284;-67
2021/08/21 07:35:47;;;;;;;7.20;5.37;;;;;;;23.05;84.58;97771.22;5009153;28;20234;-67
2021/08/21 07:38:13;;;;;;;6.10;5.23;;;;;;;22.97;85.06;97749.63;5000412;28;20214;-67
2021/08/21 07:40:41;;;;;;;7.70;5.20;;;;;;;23.06;84.93;97760.13;5006921;28;20622;-66
2021/08/21 07:43:07;;;;;;;7.83;5.50;;;;;;;23.06;84.94;97764.38;5006466;28;20710;-67
2021/08/21 07:45:34;;;;;;;9.87;5.23;;;;;;;23.00;85.15;97754.84;5000000;28;20250;-67
2021/08/21 07:48:01;;;;;;;8.87;5.53;;;;;;;23.06;84.70;97767.81;5006684;28;20574;-67
2021/08/21 07:50:28;;;;;;;6.67;5.43;;;;;;;23.07;85.00;97772.13;5006781;28;20202;-67
2021/08/21 07:52:55;;;;;;;6.80;5.27;;;;;;;23.07;85.33;97768.72;4996934;28;20242;-66
2021/08/21 07:55:21;;;;;;;5.80;5.30;;;;;;;22.94;84.96;97743.56;5006253;28;20582;-67
2021/08/21 07:57:48;;;;;;;7.80;5.23;;;;;;;23.07;85.11;97771.28;5001438;28;20469;-67
2021/08/21 08:00:16;;;;;;;7.93;5.23;;;;;;;23.07;85.16;97776.41;5007750;28;20586;-67
2021/08/21 08:02:45;;;;;;;5.73;5.10;;;;;;;23.07;85.16;97772.13;5007557;28;20232;-66
2021/08/21 08:05:12;;;;;;;6.57;4.83;;;;;;;22.99;85.16;97759.94;4997899;28;20227;-67
2021/08/21 08:07:38;;;;;;;7.03;5.27;;;;;;;23.08;84.75;97783.25;5003437;28;20205;-67
2021/08/21 08:10:06;;;;;;;6.40;5.10;;;;;;;23.08;85.27;97775.56;5006315;28;20268;-67
2021/08/21 08:12:32;;;;;;;5.90;4.87;;;;;;;23.07;85.11;97777.25;5005404;28;20222;-67
2021/08/21 08:14:59;;;;;;;7.17;5.10;;;;;;;23.07;85.25;97779.81;5007591;28;20679;-67
2021/08/21 08:17:25;;;;;;;8.03;5.37;;;;;;;23.04;85.27;97779.72;4997424;28;20234;-67
2021/08/21 08:19:52;;;;;;;7.73;4.80;;;;;;;22.99;85.23;97768.50;5004811;28;20252;-67
2021/08/21 08:22:19;;;;;;;6.13;5.17;;;;;;;23.07;85.31;97784.94;5006525;28;20261;-67
2021/08/21 08:24:46;;;;;;;6.73;4.80;;;;;;;23.07;85.36;97786.66;5004771;28;20198;-67
2021/08/21 08:27:15;;;;;;;5.57;4.70;;;;;;;23.00;85.42;97771.91;5006248;28;20281;-67
2021/08/21 08:29:41;;;;;;;5.37;4.87;;;;;;;23.08;85.38;97791.81;4993618;28;20209;-66
2021/08/21 08:32:08;;;;;;;5.60;4.93;;;;;;;23.08;85.34;97789.25;4998781;28;20249;-67
2021/08/21 08:34:35;;;;;;;7.30;4.70;;;;;;;22.90;85.79;97752.88;4999280;28;20695;-67
2021/08/21 08:37:01;;;;;;;6.83;5.03;;;;;;;23.08;85.44;97783.25;5005310;28;20233;-66
2021/08/21 08:39:28;;;;;;;6.37;5.20;;;;;;;23.07;85.52;97772.13;5009756;28;20317;-67
2021/08/21 08:41:55;;;;;;;6.77;4.40;;;;;;;23.08;85.47;97784.13;5010235;28;20222;-66
2021/08/21 08:44:23;;;;;;;9.33;4.60;;;;;;;23.04;85.50;97771.19;4990283;28;20207;-67
2021/08/21 08:46:50;;;;;;;6.90;5.37;;;;;;;22.76;85.68;97719.97;4999078;28;20233;-67
2021/08/21 08:49:17;;;;;;;5.73;4.70;;;;;;;23.00;85.51;97761.66;4998594;28;20230;-67
2021/08/21 08:51:43;;;;;;;7.40;4.60;;;;;;;23.07;85.30;97779.81;4997384;28;20202;-68
2021/08/21 08:54:10;;;;;;;5.23;4.73;;;;;;;22.99;85.87;97759.94;4982629;28;20229;-67
2021/08/21 08:56:37;;;;;;;6.80;4.60;;;;;;;22.99;85.68;97762.50;5008890;28;20293;-67
2021/08/21 08:59:03;;;;;;;7.30;4.80;;;;;;;23.07;85.57;97766.16;5008886;28;20226;-66
2021/08/21 09:01:30;;;;;;;5.70;4.90;;;;;;;23.08;85.68;97773.00;5010486;28;20697;-67
2021/08/21 09:04:19;;;;;;;5.10;4.60;;;;;;;23.08;85.69;97768.75;4998420;28;20222;-66
2021/08/21 09:06:46;;;;;;;5.90;4.60;;;;;;;23.09;85.67;97777.28;5007769;28;20285;-66
2021/08/21 09:09:17;;;;;;;6.03;4.83;;;;;;;23.08;85.69;97768.75;5008926;28;20218;-66
2021/08/21 09:11:45;;;;;;;5.20;4.67;;;;;;;23.00;85.66;97757.41;5006887;28;20214;-66
2021/08/21 09:14:20;;;;;;;7.17;4.30;;;;;;;23.08;85.71;97773.00;4994703;28;20231;-66
2021/08/21 09:16:48;;;;;;;5.27;4.60;;;;;;;23.00;85.77;97761.66;5003451;28;20233;-67
2021/08/21 09:19:25;;;;;;;5.40;4.53;;;;;;;23.07;85.74;97772.13;4981451;28;20245;-66
2021/08/21 09:21:59;;;;;;;6.77;4.50;;;;;;;22.98;85.88;97758.19;5007169;28;20233;-67
2021/08/21 09:24:26;;;;;;;4.90;4.47;;;;;;;23.05;85.77;97762.66;4978440;28;20253;-67
2021/08/21 09:26:52;;;;;;;4.93;4.53;;;;;;;23.05;85.84;97768.66;5001240;28;20245;-67
2021/08/21 09:29:23;;;;;;;4.67;4.27;;;;;;;23.00;85.81;97764.22;5008679;28;20198;-66
2021/08/21 09:31:50;;;;;;;4.97;4.50;;;;;;;23.02;85.98;97771.16;5000285;28;20226;-67
2021/08/21 09:34:19;;;;;;;6.03;4.27;;;;;;;22.73;86.00;97718.22;5004808;28;20683;-67
2021/08/21 09:36:45;;;;;;;4.90;4.50;;;;;;;22.94;86.11;97754.69;4995729;28;20296;-67
2021/08/21 09:39:13;;;;;;;7.13;4.40;;;;;;;22.80;86.13;97730.34;5009480;28;20257;-67
2021/08/21 09:41:52;;;;;;;6.33;4.77;;;;;;;23.04;86.15;97768.63;4996361;28;20198;-68
2021/08/21 09:44:29;;;;;;;4.67;4.27;;;;;;;23.04;86.10;97761.78;5002923;28;20289;-67
2021/08/21 09:47:11;;;;;;;4.53;4.00;;;;;;;23.05;86.02;97755.84;5006913;28;20237;-67
2021/08/21 09:49:38;;;;;;;5.23;4.47;;;;;;;22.68;86.07;97689.03;4997871;28;20639;-67
2021/08/21 09:52:06;;;;;;;4.63;4.17;;;;;;;23.05;86.04;97753.28;5004653;28;20690;-67
2021/08/21 09:54:33;;;;;;;4.73;4.33;;;;;;;23.06;86.08;97757.56;5008834;28;20233;-67
2021/08/21 09:56:59;;;;;;;4.50;4.07;;;;;;;22.97;86.17;97735.94;5007174;28;20203;-66
2021/08/21 09:59:44;;;;;;;4.50;4.10;;;;;;;23.06;86.17;97760.13;4996325;28;20249;-66
2021/08/21 10:02:11;;;;;;;4.20;3.80;;;;;;;23.07;86.16;97761.03;4998960;28;20250;-66
2021/08/21 10:04:39;;;;;;;4.43;4.03;;;;;;;22.97;86.06;97735.94;5007614;28;20253;-67
2021/08/21 10:07:08;;;;;;;6.53;4.20;;;;;;;23.05;86.18;97749.84;5007364;28;20738;-66
2021/08/21 10:09:36;;;;;;;4.70;4.30;;;;;;;22.74;86.22;97702.00;5008624;28;20696;-68
2021/08/21 10:12:04;;;;;;;4.80;4.23;;;;;;;23.06;86.17;97749.88;5006871;28;20663;-67
2021/08/21 10:14:31;;;;;;;5.50;4.10;;;;;;;23.06;86.20;97744.75;5002040;28;20505;-67
2021/08/21 10:16:57;;;;;;;4.60;4.20;;;;;;;23.07;85.93;97745.63;5002761;28;20268;-67
2021/08/21 10:19:24;;;;;;;4.40;4.00;;;;;;;22.93;86.35;97721.31;5007286;28;20253;-67
2021/08/21 10:21:55;;;;;;;7.33;4.00;;;;;;;23.07;86.17;97748.19;5005810;28;20226;-66
2021/08/21 10:24:27;;;;;;;4.40;4.00;;;;;;;23.07;86.13;97746.47;4993829;28;20321;-66
2021/08/21 10:27:00;;;;;;;5.43;4.17;;;;;;;22.76;86.29;97689.22;5002198;28;20202;-66
2021/08/21 10:29:27;;;;;;;4.10;3.70;;;;;;;22.91;86.36;97715.28;4989645;28;20198;-66
2021/08/21 10:31:53;;;;;;;4.70;4.20;;;;;;;23.06;86.23;97737.06;4995493;28;20486;-67
2021/08/21 10:34:20;;;;;;;5.20;4.10;;;;;;;23.07;86.41;97735.38;4998814;28;20587;-66
2021/08/21 10:36:49;;;;;;;5.40;4.60;;;;;;;22.98;86.29;97712.91;5009104;28;20272;-67
2021/08/21 10:39:26;;;;;;;4.30;3.90;;;;;;;23.07;86.38;97728.53;5002878;28;20222;-67
2021/08/21 10:41:54;;;;;;;6.17;4.20;;;;;;;23.07;86.23;97730.25;5006118;28;20242;-66
2021/08/21 10:44:41;;;;;;;5.53;4.17;;;;;;;23.07;86.41;97728.53;5004725;28;20233;-67
2021/08/21 10:47:09;;;;;;;4.20;3.80;;;;;;;23.02;86.35;97722.44;4996782;28;20266;-66
2021/08/21 10:49:40;;;;;;;4.53;3.83;;;;;;;23.03;86.37;97725.84;5000678;28;20234;-68
2021/08/21 10:52:08;;;;;;;4.63;4.23;;;;;;;22.94;86.33;97710.22;4994967;28;20254;-67
2021/08/21 10:54:45;;;;;;;3.90;3.60;;;;;;;22.96;86.31;97711.16;4977215;28;20297;-66
2021/08/21 10:57:31;;;;;;;4.83;3.87;;;;;;;22.98;86.41;97709.50;4989322;28;20226;-67
2021/08/21 10:59:57;;;;;;;3.93;3.63;;;;;;;23.07;86.31;97736.22;4992468;28;20276;-67
2021/08/21 11:02:29;;;;;;;5.07;4.20;;;;;;;23.07;86.35;97731.09;5003563;28;20757;-69
2021/08/21 11:04:55;;;;;;;3.90;3.60;;;;;;;23.04;86.47;97718.19;4998085;28;20252;-67
2021/08/21 11:07:37;;;;;;;6.13;3.80;;;;;;;23.07;86.49;97717.44;4992909;28;20751;-67
2021/08/21 11:10:16;;;;;;;4.30;3.90;;;;;;;23.07;86.52;97723.41;5000886;28;20207;-66
2021/08/21 11:12:45;;;;;;;4.03;3.63;;;;;;;23.07;86.52;97717.44;5000649;28;20222;-66
2021/08/21 11:15:15;;;;;;;4.83;3.63;;;;;;;22.96;86.43;97700.91;5000496;28;20226;-66
2021/08/21 11:17:42;;;;;;;4.37;3.97;;;;;;;22.78;86.48;97664.53;5000865;28;20214;-67
2021/08/21 11:20:31;;;;;;;4.50;4.10;;;;;;;23.07;86.57;97723.41;4992779;28;20246;-67
2021/08/21 11:23:07;;;;;;;5.30;3.90;;;;;;;23.07;86.65;97723.41;5005682;28;20257;-67
2021/08/21 11:25:34;;;;;;;4.10;3.70;;;;;;;23.08;86.49;97716.59;5004643;28;20229;-66
2021/08/21 11:28:07;;;;;;;4.10;3.80;;;;;;;22.99;86.54;97706.97;4996810;28;20289;-68
2021/08/21 11:30:35;;;;;;;3.80;3.50;;;;;;;23.08;86.48;97711.47;4984740;28;20233;-67
2021/08/21 11:33:07;;;;;;;3.40;3.10;;;;;;;23.08;86.58;97709.78;4996030;28;20737;-67
2021/08/21 11:35:54;;;;;;;3.77;3.47;;;;;;;23.07;86.51;97709.75;4998438;28;20342;-67
2021/08/21 11:38:23;;;;;;;3.93;3.63;;;;;;;23.06;86.50;97702.84;4993439;28;20295;-67